createdAt,value
2019-06-10T00:29:22.347Z,3.27
2019-06-10T00:59:24.481Z,3.10
2019-06-10T01:29:27.095Z,3.33
2019-06-10T01:59:31.109Z,3.20
2019-06-10T02:29:33.909Z,4.00
2019-06-10T02:59:36.788Z,4.87
2019-06-10T03:29:39.373Z,7.25
2019-06-10T03:59:42.291Z,14.30
2019-06-10T04:29:44.926Z,11.70
2019-06-10T04:59:47.554Z,12.80
2019-06-10T05:29:52.371Z,14.75
2019-06-10T05:59:54.429Z,15.38
2019-06-10T06:29:57.057Z,15.85
2019-06-10T06:59:59.669Z,14.87
2019-06-10T07:30:11.499Z,13.65
2019-06-10T08:00:12.222Z,13.28
2019-06-10T08:30:22.514Z,12.78
2019-06-10T09:00:22.613Z,11.05
2019-06-10T09:30:26.549Z,10.72
2019-06-10T10:00:52.620Z,9.85
2019-06-10T10:30:57.598Z,8.80
2019-06-10T11:00:58.060Z,9.33
2019-06-10T11:31:03.287Z,9.58
2019-06-10T12:01:05.136Z,9.03
2019-06-10T12:31:07.746Z,8.05
2019-06-10T13:01:10.393Z,7.58
2019-06-10T13:31:14.050Z,7.65
2019-06-10T14:01:21.677Z,7.55
2019-06-10T14:31:38.706Z,7.50
2019-06-10T15:01:26.053Z,7.45
2019-06-10T15:31:28.837Z,7.55
2019-06-10T16:01:32.611Z,9.08
2019-06-10T16:31:35.544Z,8.23
2019-06-10T17:01:38.260Z,7.90
2019-06-10T17:31:42.582Z,8.45
2019-06-10T18:01:45.949Z,7.80
2019-06-10T18:31:48.624Z,8.30
2019-06-10T19:01:52.671Z,8.50
2019-06-10T19:31:55.828Z,9.35
2019-06-10T20:01:59.731Z,9.90
2019-06-10T20:32:02.404Z,11.38
2019-06-10T21:02:05.456Z,10.85
2019-06-10T21:32:08.345Z,12.03
2019-06-10T22:02:12.710Z,12.78
2019-06-10T22:32:15.382Z,15.28
2019-06-10T23:02:18.040Z,19.40
2019-06-10T23:32:22.213Z,12.88
